createdAt,value
2023-11-01T00:01:36.381Z,3.70
2023-11-01T00:03:38.828Z,3.25
2023-11-01T00:05:40.731Z,3.95
2023-11-01T00:07:42.556Z,5.00
2023-11-01T00:09:44.481Z,4.18
2023-11-01T00:11:49.494Z,3.67
2023-11-01T00:13:51.708Z,4.05
2023-11-01T00:15:53.455Z,3.25
2023-11-01T00:17:56.708Z,3.50
2023-11-01T00:19:58.557Z,3.50
2023-11-01T00:22:00.147Z,3.92
2023-11-01T00:24:02.147Z,4.53
2023-11-01T00:26:04.006Z,3.95
2023-11-01T00:28:05.675Z,4.20
2023-11-01T00:30:08.360Z,4.10
2023-11-01T00:32:10.424Z,4.40
2023-11-01T00:34:12.208Z,4.45
2023-11-01T00:36:14.013Z,4.35
2023-11-01T00:38:20.633Z,4.40
2023-11-01T00:40:22.286Z,4.50
2023-11-01T00:42:23.953Z,3.97
2023-11-01T00:44:25.739Z,4.85
2023-11-01T00:46:27.504Z,4.85
2023-11-01T00:48:29.561Z,4.50
2023-11-01T00:50:31.966Z,4.70
2023-11-01T00:52:33.654Z,5.63
2023-11-01T00:54:35.259Z,4.13
2023-11-01T00:56:37.205Z,4.95
2023-11-01T00:58:39.236Z,5.40
2023-11-01T01:00:42.157Z,5.20
2023-11-01T01:02:45.033Z,5.63
2023-11-01T01:04:48.080Z,5.07
2023-11-01T01:06:49.768Z,4.82
2023-11-01T01:08:52.541Z,5.10
2023-11-01T01:10:54.517Z,4.40
2023-11-01T01:12:56.475Z,4.93
2023-11-01T01:14:58.788Z,4.95
2023-11-01T01:17:00.663Z,4.82
2023-11-01T01:19:02.678Z,4.32
2023-11-01T01:21:04.563Z,4.93
2023-11-01T01:23:06.324Z,5.00
2023-11-01T01:25:08.369Z,5.07
2023-11-01T01:27:10.059Z,4.32
2023-11-01T01:29:11.749Z,4.60
2023-11-01T01:31:15.261Z,4.90
2023-11-01T01:33:17.077Z,4.25
2023-11-01T01:35:19.474Z,4.43
2023-11-01T01:37:21.082Z,4.50
2023-11-01T01:39:24.069Z,4.18
2023-11-01T01:41:25.730Z,4.00
2023-11-01T01:43:28.887Z,4.15
2023-11-01T01:45:30.688Z,3.53
2023-11-01T01:47:34.619Z,3.80
2023-11-01T01:49:43.331Z,3.55
2023-11-01T01:51:47.405Z,4.43
2023-11-01T01:53:49.753Z,4.35
2023-11-01T01:55:52.205Z,4.40
2023-11-01T01:57:53.985Z,4.03
2023-11-01T01:59:56.479Z,5.10
2023-11-01T02:01:58.525Z,3.97
2023-11-01T02:04:00.226Z,4.55
2023-11-01T02:06:03.833Z,4.50
2023-11-01T02:08:05.796Z,4.35
2023-11-01T02:10:16.301Z,4.60
2023-11-01T02:12:18.348Z,4.93
2023-11-01T02:14:22.638Z,4.72
2023-11-01T02:16:24.630Z,4.82
2023-11-01T02:18:26.260Z,5.05
2023-11-01T02:20:28.307Z,5.90
2023-11-01T02:22:30.358Z,4.50
2023-11-01T02:24:32.162Z,5.70
2023-11-01T02:26:34.087Z,4.80
2023-11-01T02:28:36.302Z,5.93
2023-11-01T02:30:39.352Z,5.28
2023-11-01T02:32:41.288Z,4.65
2023-11-01T02:34:43.464Z,5.00
2023-11-01T02:36:45.297Z,5.82
2023-11-01T02:38:47.038Z,5.22
2023-11-01T02:40:49.300Z,4.78
2023-11-01T02:42:56.445Z,5.10
2023-11-01T02:44:58.631Z,5.32
2023-11-01T02:47:00.316Z,4.22
2023-11-01T02:49:05.323Z,4.90
2023-11-01T02:51:07.147Z,4.90
2023-11-01T02:53:08.863Z,4.47
2023-11-01T02:55:12.719Z,4.70
2023-11-01T02:57:14.362Z,4.72
2023-11-01T02:59:16.630Z,5.13
2023-11-01T03:01:18.792Z,5.03
2023-11-01T03:03:20.536Z,5.07
2023-11-01T03:05:23.953Z,4.18
2023-11-01T03:07:25.817Z,4.75
2023-11-01T03:09:27.487Z,4.82
2023-11-01T03:11:29.266Z,4.80
2023-11-01T03:13:31.476Z,5.00
2023-11-01T03:15:33.203Z,4.90
2023-11-01T03:17:36.533Z,4.60
2023-11-01T03:19:38.563Z,5.05
2023-11-01T03:21:42.632Z,4.57
2023-11-01T03:23:44.401Z,4.72
2023-11-01T03:25:46.179Z,5.22
2023-11-01T03:27:47.871Z,5.18
2023-11-01T03:29:49.705Z,5.43
2023-11-01T03:31:51.644Z,5.72
2023-11-01T03:33:53.433Z,5.20
2023-11-01T03:35:55.470Z,5.60
2023-11-01T03:37:57.159Z,5.55
2023-11-01T03:39:58.864Z,5.72
2023-11-01T03:42:06.001Z,5.95
2023-11-01T03:44:08.207Z,5.90
2023-11-01T03:46:10.128Z,5.65
2023-11-01T03:48:12.072Z,5.50
2023-11-01T03:50:13.911Z,6.28
2023-11-01T03:52:16.021Z,7.57
2023-11-01T03:54:17.911Z,6.90
2023-11-01T03:56:21.971Z,6.70
2023-11-01T03:58:23.841Z,7.40
2023-11-01T04:00:25.533Z,7.50
2023-11-01T04:02:27.324Z,7.20
2023-11-01T04:04:29.434Z,7.82
2023-11-01T04:06:33.503Z,7.50
2023-11-01T04:08:35.192Z,7.03
2023-11-01T04:10:36.881Z,7.50
2023-11-01T04:12:38.752Z,7.85
2023-11-01T04:14:40.869Z,8.10
2023-11-01T04:16:42.726Z,7.65
2023-11-01T04:18:44.595Z,7.80
2023-11-01T04:20:46.473Z,7.47
2023-11-01T04:22:48.213Z,7.38
2023-11-01T04:24:50.646Z,7.78
2023-11-01T04:26:53.686Z,7.97
2023-11-01T04:28:55.539Z,8.15
2023-11-01T04:30:57.847Z,8.45
2023-11-01T04:33:00.963Z,7.57
2023-11-01T04:35:04.002Z,7.95
2023-11-01T04:37:05.874Z,8.40
2023-11-01T04:39:07.639Z,8.10
2023-11-01T04:41:12.580Z,7.72
2023-11-01T04:43:15.907Z,7.78
2023-11-01T04:45:17.757Z,9.65
2023-11-01T04:47:19.583Z,9.63
2023-11-01T04:49:25.204Z,8.50
2023-11-01T04:51:26.896Z,9.10
2023-11-01T04:53:28.779Z,8.38
2023-11-01T04:55:31.008Z,8.90
2023-11-01T04:57:37.394Z,9.13
2023-11-01T04:59:39.115Z,8.80
2023-11-01T05:01:40.886Z,9.15
2023-11-01T05:03:42.753Z,9.10
2023-11-01T05:05:44.750Z,9.15
2023-11-01T05:07:46.694Z,8.98
2023-11-01T05:09:48.776Z,8.85
2023-11-01T05:11:51.681Z,9.00
2023-11-01T05:13:56.151Z,8.93
2023-11-01T05:15:57.816Z,8.98
2023-11-01T05:18:00.960Z,9.35
2023-11-01T05:20:05.283Z,10.50
2023-11-01T05:22:07.424Z,10.52
2023-11-01T05:24:13.511Z,10.40
2023-11-01T05:26:17.916Z,11.13
2023-11-01T05:28:19.880Z,10.43
2023-11-01T05:30:22.276Z,10.82
2023-11-01T05:32:23.943Z,10.57
2023-11-01T05:34:25.703Z,9.48
2023-11-01T05:36:29.448Z,9.93
2023-11-01T05:38:31.202Z,11.95
2023-11-01T05:40:32.904Z,10.70
2023-11-01T05:42:34.605Z,11.30
2023-11-01T05:44:36.516Z,11.32
2023-11-01T05:46:40.855Z,13.40
2023-11-01T05:48:43.589Z,13.52
2023-11-01T05:50:45.918Z,13.75
2023-11-01T05:52:47.689Z,13.25
2023-11-01T05:54:51.660Z,12.32
2023-11-01T05:56:55.719Z,11.60
2023-11-01T05:58:57.347Z,11.10
2023-11-01T06:00:59.102Z,10.88
2023-11-01T06:03:01.432Z,10.77
2023-11-01T06:05:05.395Z,10.73
2023-11-01T06:07:07.664Z,11.60
2023-11-01T06:09:09.851Z,10.98
2023-11-01T06:11:11.642Z,11.73
2023-11-01T06:13:13.380Z,12.88
2023-11-01T06:15:16.256Z,12.77
2023-11-01T06:17:17.970Z,11.80
2023-11-01T06:19:20.031Z,12.05
2023-11-01T06:21:21.731Z,11.25
2023-11-01T06:23:23.452Z,11.88
2023-11-01T06:25:25.450Z,10.18
2023-11-01T06:27:29.656Z,11.38
2023-11-01T06:29:32.400Z,11.27
2023-11-01T06:31:35.828Z,10.60
2023-11-01T06:33:39.700Z,10.25
2023-11-01T06:35:41.524Z,10.10
2023-11-01T06:37:43.609Z,10.25
2023-11-01T06:39:45.374Z,9.57
2023-11-01T06:41:47.327Z,11.05
2023-11-01T06:43:49.469Z,10.68
2023-11-01T06:45:51.755Z,11.18
2023-11-01T06:47:53.624Z,10.18
2023-11-01T06:49:57.892Z,7.90
2023-11-01T06:52:02.158Z,8.80
2023-11-01T06:54:04.037Z,8.25
2023-11-01T06:56:06.335Z,7.93
2023-11-01T06:58:08.059Z,8.07
2023-11-01T07:00:10.252Z,8.00
2023-11-01T07:02:11.892Z,7.47
2023-11-01T07:04:16.114Z,8.05
2023-11-01T07:06:22.028Z,8.43
2023-11-01T07:08:24.093Z,7.75
2023-11-01T07:10:25.996Z,7.72
2023-11-01T07:12:28.971Z,7.90
2023-11-01T07:14:31.148Z,7.82
2023-11-01T07:16:33.160Z,8.82
2023-11-01T07:18:42.295Z,8.27
2023-11-01T07:20:45.027Z,7.65
2023-11-01T07:22:46.857Z,8.05
2023-11-01T07:24:51.013Z,6.65
2023-11-01T07:26:52.711Z,7.20
2023-11-01T07:28:55.919Z,7.13
2023-11-01T07:30:59.117Z,6.70
2023-11-01T07:33:01.395Z,7.28
2023-11-01T07:35:05.045Z,8.02
2023-11-01T07:37:06.894Z,7.95
2023-11-01T07:39:09.284Z,6.32
2023-11-01T07:41:11.146Z,7.00
2023-11-01T07:43:12.891Z,6.93
2023-11-01T07:45:14.766Z,7.18
2023-11-01T07:47:18.206Z,6.47
2023-11-01T07:49:19.839Z,6.47
2023-11-01T07:51:22.417Z,6.15
2023-11-01T07:53:25.441Z,6.88
2023-11-01T07:55:27.160Z,6.90
2023-11-01T07:57:29.974Z,7.20
2023-11-01T07:59:31.728Z,6.20
2023-11-01T08:01:33.874Z,6.70
2023-11-01T08:03:38.537Z,6.50
2023-11-01T08:05:40.434Z,6.15
2023-11-01T08:07:42.072Z,7.88
2023-11-01T08:09:50.614Z,7.35
2023-11-01T08:11:52.397Z,7.95
2023-11-01T08:13:54.074Z,7.85
2023-11-01T08:15:55.761Z,7.93
2023-11-01T08:17:57.693Z,7.75
2023-11-01T08:20:02.529Z,7.80
2023-11-01T08:22:07.054Z,7.72
2023-11-01T08:24:09.202Z,7.25
2023-11-01T08:26:17.689Z,8.30
2023-11-01T08:28:19.896Z,7.55
2023-11-01T08:30:22.231Z,8.02
2023-11-01T08:32:24.403Z,7.45
2023-11-01T08:34:26.480Z,10.02
2023-11-01T08:36:28.188Z,8.57
2023-11-01T08:38:30.366Z,10.48
2023-11-01T08:40:32.167Z,10.60
2023-11-01T08:42:35.304Z,9.10
2023-11-01T08:44:37.090Z,11.82
2023-11-01T08:46:38.891Z,8.85
2023-11-01T08:48:40.757Z,5.95
2023-11-01T08:50:42.677Z,5.20
2023-11-01T08:52:45.899Z,5.30
2023-11-01T08:54:48.946Z,4.15
2023-11-01T08:56:52.709Z,4.70
2023-11-01T08:58:54.406Z,4.63
2023-11-01T09:00:58.553Z,4.20
2023-11-01T09:03:01.687Z,4.32
2023-11-01T09:05:03.717Z,4.10
2023-11-01T09:07:05.599Z,4.50
2023-11-01T09:09:07.812Z,3.80
2023-11-01T09:11:09.528Z,4.28
2023-11-01T09:13:11.598Z,3.65
2023-11-01T09:15:13.378Z,3.78
2023-11-01T09:17:15.728Z,3.78
2023-11-01T09:19:17.542Z,4.95
2023-11-01T09:21:20.561Z,5.97
2023-11-01T09:23:23.544Z,5.93
2023-11-01T09:25:28.944Z,6.18
2023-11-01T09:27:30.625Z,6.47
2023-11-01T09:29:32.294Z,8.93
2023-11-01T09:31:37.245Z,8.35
2023-11-01T09:33:39.280Z,8.65
2023-11-01T09:35:41.214Z,9.98
2023-11-01T09:37:43.371Z,10.93
2023-11-01T09:39:45.356Z,12.18
2023-11-01T09:41:52.097Z,13.68
2023-11-01T09:43:59.665Z,10.30
2023-11-01T09:46:06.800Z,10.00
2023-11-01T09:48:09.576Z,10.02
2023-11-01T09:50:13.672Z,9.23
2023-11-01T09:52:15.600Z,9.85
2023-11-01T09:54:17.190Z,12.98
2023-11-01T09:56:21.360Z,9.77
2023-11-01T09:58:24.376Z,10.32
2023-11-01T10:00:30.228Z,8.85
2023-11-01T10:02:32.057Z,8.90
2023-11-01T10:04:35.841Z,9.68
2023-11-01T10:06:38.013Z,9.63
2023-11-01T10:08:40.284Z,9.98
2023-11-01T10:10:42.766Z,9.30
2023-11-01T10:12:47.219Z,10.10
2023-11-01T10:14:49.386Z,8.38
2023-11-01T10:16:51.128Z,7.85
2023-11-01T10:18:53.959Z,7.78
2023-11-01T10:20:58.673Z,7.47
2023-11-01T10:23:00.509Z,8.02
2023-11-01T10:25:04.495Z,7.22
2023-11-01T10:27:08.001Z,7.15
2023-11-01T10:29:09.706Z,7.10
2023-11-01T10:31:15.812Z,6.93
2023-11-01T10:33:20.441Z,6.45
2023-11-01T10:35:22.280Z,7.70
2023-11-01T10:37:31.663Z,8.20
2023-11-01T10:39:38.865Z,6.97
2023-11-01T10:41:40.629Z,7.15
2023-11-01T10:43:42.374Z,7.82
2023-11-01T10:45:44.511Z,6.57
2023-11-01T10:47:49.287Z,7.38
2023-11-01T10:49:53.293Z,5.78
2023-11-01T10:51:56.749Z,5.03
2023-11-01T10:54:03.135Z,5.80
2023-11-01T10:56:08.747Z,7.28
2023-11-01T10:58:17.797Z,6.72
2023-11-01T11:00:25.710Z,6.32
2023-11-01T11:02:34.384Z,6.50
2023-11-01T11:04:53.176Z,6.15
2023-11-01T11:07:36.177Z,6.90
2023-11-01T11:09:39.396Z,7.72
2023-11-01T11:11:41.262Z,6.63
2023-11-01T11:13:44.006Z,6.00
2023-11-01T11:15:49.400Z,6.57
2023-11-01T11:18:07.703Z,6.60
2023-11-01T11:20:14.088Z,5.65
2023-11-01T11:22:17.162Z,5.28
2023-11-01T11:24:56.881Z,5.68
2023-11-01T11:26:58.686Z,5.07
2023-11-01T11:29:00.899Z,5.68
2023-11-01T11:31:06.674Z,5.55
2023-11-01T11:33:08.624Z,6.53
2023-11-01T11:35:22.432Z,5.93
2023-11-01T11:37:30.190Z,5.57
2023-11-01T11:40:08.744Z,5.97
2023-11-01T11:42:59.257Z,7.13
2023-11-01T11:45:02.535Z,6.47
2023-11-01T11:47:32.971Z,8.20
2023-11-01T11:49:38.967Z,5.88
2023-11-01T11:51:51.119Z,6.38
2023-11-01T11:53:53.546Z,5.38
2023-11-01T11:55:55.509Z,5.38
2023-11-01T11:57:57.223Z,5.60
2023-11-01T12:00:09.110Z,6.40
2023-11-01T12:02:19.890Z,5.72
2023-11-01T12:04:22.722Z,5.18
2023-11-01T12:08:37.727Z,6.95
2023-11-01T12:10:50.651Z,6.53
2023-11-01T12:12:55.632Z,5.82
2023-11-01T12:14:59.653Z,5.90
2023-11-01T12:17:03.359Z,5.63
2023-11-01T12:21:14.079Z,5.82
2023-11-01T12:23:15.965Z,5.40
2023-11-01T12:25:24.584Z,5.72
2023-11-01T12:27:31.111Z,5.03
2023-11-01T12:29:43.656Z,5.22
2023-11-01T12:32:00.145Z,5.50
2023-11-01T12:34:15.517Z,5.20
2023-11-01T12:36:29.049Z,5.93
2023-11-01T12:38:34.456Z,5.30
2023-11-01T12:40:38.806Z,5.03
2023-11-01T12:42:42.849Z,5.50
2023-11-01T12:44:44.670Z,5.93
2023-11-01T12:46:46.940Z,4.78
2023-11-01T12:48:49.945Z,5.10
2023-11-01T12:50:52.772Z,5.47
2023-11-01T12:52:55.420Z,5.37
2023-11-01T12:54:57.144Z,5.95
2023-11-01T12:56:59.321Z,5.20
2023-11-01T12:59:19.978Z,5.03
2023-11-01T13:01:22.861Z,4.68
2023-11-01T13:03:24.829Z,4.10
2023-11-01T13:05:27.878Z,5.28
2023-11-01T13:07:32.318Z,4.90
2023-11-01T13:09:34.802Z,4.90
2023-11-01T13:11:36.543Z,4.50
2023-11-01T13:13:38.546Z,4.78
2023-11-01T13:15:40.311Z,5.03
2023-11-01T13:17:42.327Z,4.55
2023-11-01T13:19:44.158Z,4.18
2023-11-01T13:21:46.476Z,4.50
2023-11-01T13:23:48.843Z,4.82
2023-11-01T13:25:50.672Z,5.43
2023-11-01T13:27:52.350Z,5.10
2023-11-01T13:29:54.237Z,4.75
2023-11-01T13:31:57.561Z,4.55
2023-11-01T13:33:59.242Z,5.20
2023-11-01T13:36:02.438Z,4.70
2023-11-01T13:38:04.255Z,4.35
2023-11-01T13:40:06.608Z,4.45
2023-11-01T13:42:08.779Z,4.30
2023-11-01T13:44:11.153Z,4.30
2023-11-01T13:46:14.549Z,3.55
2023-11-01T13:48:16.527Z,3.42
2023-11-01T13:50:18.674Z,4.28
2023-11-01T13:52:21.531Z,4.07
2023-11-01T13:54:23.606Z,5.10
2023-11-01T13:56:25.448Z,4.28
2023-11-01T13:58:27.983Z,3.78
2023-11-01T14:00:30.799Z,4.93
2023-11-01T14:02:33.863Z,4.57
2023-11-01T14:04:41.134Z,4.40
2023-11-01T14:06:42.907Z,4.55
2023-11-01T14:08:45.489Z,4.40
2023-11-01T14:10:49.334Z,4.20
2023-11-01T14:12:52.166Z,3.92
2023-11-01T14:14:53.834Z,4.73
2023-11-01T14:16:56.083Z,4.32
2023-11-01T14:18:59.951Z,4.95
2023-11-01T14:21:04.231Z,5.47
2023-11-01T14:23:05.923Z,4.40
2023-11-01T14:25:08.075Z,4.50
2023-11-01T14:27:12.311Z,4.30
2023-11-01T14:29:14.191Z,4.93
2023-11-01T14:31:20.939Z,5.30
2023-11-01T14:33:23.533Z,4.75
2023-11-01T14:35:25.701Z,5.07
2023-11-01T14:37:27.524Z,3.58
2023-11-01T14:39:29.166Z,3.88
2023-11-01T14:41:32.650Z,4.35
2023-11-01T14:43:34.654Z,4.45
2023-11-01T14:45:36.929Z,3.92
2023-11-01T14:47:38.795Z,3.55
2023-11-01T14:49:40.499Z,3.50
2023-11-01T14:51:43.334Z,3.78
2023-11-01T14:53:46.459Z,4.33
2023-11-01T14:55:48.457Z,3.85
2023-11-01T14:57:50.175Z,3.63
2023-11-01T14:59:52.340Z,3.92
2023-11-01T15:01:58.287Z,3.85
2023-11-01T15:04:00.159Z,4.20
2023-11-01T15:06:02.003Z,4.28
2023-11-01T15:08:03.876Z,4.60
2023-11-01T15:10:06.440Z,4.50
2023-11-01T15:12:08.464Z,4.40
2023-11-01T15:14:11.865Z,4.82
2023-11-01T15:16:15.845Z,4.95
2023-11-01T15:18:17.677Z,3.95
2023-11-01T15:20:19.415Z,4.63
2023-11-01T15:22:23.257Z,4.70
2023-11-01T15:24:29.540Z,4.55
2023-11-01T15:26:35.185Z,5.15
2023-11-01T15:28:36.969Z,5.03
2023-11-01T15:30:39.195Z,5.03
2023-11-01T15:32:41.394Z,5.68
2023-11-01T15:34:44.321Z,5.10
2023-11-01T15:36:48.962Z,5.45
2023-11-01T15:38:51.207Z,5.07
2023-11-01T15:40:54.082Z,5.60
2023-11-01T15:42:55.983Z,5.25
2023-11-01T15:44:58.165Z,4.80
2023-11-01T15:46:59.920Z,4.93
2023-11-01T15:49:02.627Z,5.30
2023-11-01T15:51:04.799Z,4.75
2023-11-01T15:53:06.508Z,4.75
2023-11-01T15:55:09.775Z,5.63
2023-11-01T15:57:14.165Z,5.60
2023-11-01T15:59:16.535Z,5.50
2023-11-01T16:01:21.449Z,5.45
2023-11-01T16:03:23.202Z,5.38
2023-11-01T16:05:26.205Z,5.68
2023-11-01T16:07:30.535Z,5.05
2023-11-01T16:09:35.352Z,4.90
2023-11-01T16:11:38.404Z,5.80
2023-11-01T16:13:42.315Z,5.07
2023-11-01T16:15:44.484Z,4.85
2023-11-01T16:17:46.777Z,4.93
2023-11-01T16:19:48.917Z,5.22
2023-11-01T16:21:50.872Z,5.25
2023-11-01T16:23:55.975Z,7.03
2023-11-01T16:25:57.991Z,6.38
2023-11-01T16:28:00.126Z,6.10
2023-11-01T16:30:02.358Z,5.43
2023-11-01T16:32:04.809Z,5.70
2023-11-01T16:34:06.779Z,5.50
2023-11-01T16:36:08.969Z,6.13
2023-11-01T16:38:11.137Z,6.00
2023-11-01T16:40:13.695Z,5.78
2023-11-01T16:42:17.297Z,6.50
2023-11-01T16:46:21.051Z,6.45
2023-11-01T16:48:22.839Z,5.90
2023-11-01T16:50:24.716Z,5.78
2023-11-01T16:52:26.822Z,5.82
2023-11-01T16:54:29.358Z,5.80
2023-11-01T16:56:31.977Z,6.28
2023-11-01T16:58:33.698Z,7.13
2023-11-01T17:00:38.019Z,6.22
2023-11-01T17:02:47.892Z,5.28
2023-11-01T17:04:53.026Z,5.72
2023-11-01T17:06:55.184Z,5.78
2023-11-01T17:08:56.988Z,5.55
2023-11-01T17:10:58.905Z,5.88
2023-11-01T17:13:01.552Z,5.80
2023-11-01T17:15:05.304Z,5.90
2023-11-01T17:17:09.227Z,6.65
2023-11-01T17:19:11.088Z,5.65
2023-11-01T17:21:15.179Z,5.88
2023-11-01T17:23:16.835Z,6.03
2023-11-01T17:25:46.588Z,7.82
2023-11-01T17:27:48.255Z,7.95
2023-11-01T17:29:51.787Z,8.15
2023-11-01T17:31:53.736Z,8.55
2023-11-01T17:33:56.053Z,6.38
2023-11-01T17:35:57.752Z,7.78
2023-11-01T17:38:21.239Z,8.77
2023-11-01T17:40:23.436Z,7.22
2023-11-01T17:42:25.088Z,6.72
2023-11-01T17:44:32.378Z,6.30
2023-11-01T17:46:34.182Z,8.40
2023-11-01T17:48:36.019Z,9.07
2023-11-01T17:50:37.864Z,10.07
2023-11-01T17:52:42.586Z,12.20
2023-11-01T17:54:44.200Z,8.05
2023-11-01T17:56:46.373Z,6.70
2023-11-01T17:58:55.822Z,7.35
2023-11-01T18:00:57.700Z,7.57
2023-11-01T18:03:18.065Z,50.72
2023-11-01T18:05:36.801Z,33.95
2023-11-01T18:07:42.329Z,25.83
2023-11-01T18:09:44.158Z,21.48
2023-11-01T18:11:46.497Z,18.38
2023-11-01T18:13:48.311Z,22.17
2023-11-01T18:15:52.710Z,16.90
2023-11-01T18:17:55.552Z,16.63
2023-11-01T18:19:58.321Z,17.30
2023-11-01T18:22:00.158Z,14.15
2023-11-01T18:24:13.609Z,16.80
2023-11-01T18:26:22.386Z,15.27
2023-11-01T18:28:25.497Z,13.85
2023-11-01T18:30:28.435Z,13.43
2023-11-01T18:32:30.202Z,11.97
2023-11-01T18:34:37.571Z,14.45
2023-11-01T18:36:48.682Z,14.32
2023-11-01T18:38:58.642Z,13.65
2023-11-01T18:41:04.109Z,14.25
2023-11-01T18:43:06.363Z,14.65
2023-11-01T18:45:13.990Z,15.38
2023-11-01T18:47:18.450Z,13.60
2023-11-01T18:50:01.700Z,13.13
2023-11-01T18:52:08.336Z,13.55
2023-11-01T18:54:10.646Z,12.85
2023-11-01T18:56:14.152Z,12.77
2023-11-01T18:58:15.878Z,12.73
2023-11-01T19:00:29.629Z,12.88
2023-11-01T19:02:39.559Z,12.93
2023-11-01T19:04:41.279Z,10.63
2023-11-01T19:06:44.876Z,10.95
2023-11-01T19:08:46.920Z,11.45
2023-11-01T19:10:50.766Z,9.80
2023-11-01T19:14:58.868Z,12.73
2023-11-01T19:17:01.616Z,13.27
2023-11-01T19:19:03.749Z,11.55
2023-11-01T19:21:06.017Z,12.52
2023-11-01T19:23:08.056Z,13.05
2023-11-01T19:25:11.224Z,13.48
2023-11-01T19:27:18.424Z,13.38
2023-11-01T19:29:26.540Z,14.38
2023-11-01T19:31:31.281Z,15.95
2023-11-01T19:33:34.197Z,13.27
2023-11-01T19:35:36.556Z,12.65
2023-11-01T19:37:41.814Z,12.13
2023-11-01T19:39:45.050Z,12.32
2023-11-01T19:41:47.164Z,13.82
2023-11-01T19:43:50.131Z,12.85
2023-11-01T19:45:54.266Z,11.82
2023-11-01T19:47:56.430Z,12.57
2023-11-01T19:49:58.927Z,12.52
2023-11-01T19:52:00.674Z,12.48
2023-11-01T19:54:04.221Z,12.60
2023-11-01T19:56:06.908Z,13.23
2023-11-01T19:58:08.761Z,14.43
2023-11-01T20:00:13.002Z,14.02
2023-11-01T20:02:15.311Z,14.02
2023-11-01T20:04:17.983Z,13.65
2023-11-01T20:06:21.233Z,13.90
2023-11-01T20:08:22.939Z,14.90
2023-11-01T20:10:26.479Z,13.32
2023-11-01T20:12:31.351Z,13.38
2023-11-01T20:14:34.664Z,13.15
2023-11-01T20:16:38.524Z,13.07
2023-11-01T20:18:40.368Z,12.52
2023-11-01T20:20:44.784Z,13.43
2023-11-01T20:22:46.599Z,13.52
2023-11-01T20:24:48.822Z,13.40
2023-11-01T20:26:51.417Z,14.02
2023-11-01T20:28:54.137Z,14.02
2023-11-01T20:30:56.342Z,12.65
2023-11-01T20:32:58.319Z,13.88
2023-11-01T20:35:01.352Z,13.55
2023-11-01T20:37:04.089Z,13.15
2023-11-01T20:39:06.735Z,13.32
2023-11-01T20:41:11.045Z,14.23
2023-11-01T20:43:12.739Z,13.68
2023-11-01T20:45:15.398Z,13.77
2023-11-01T20:47:19.228Z,12.70
2023-11-01T20:51:23.408Z,11.55
2023-11-01T20:53:25.138Z,11.50
2023-11-01T20:55:29.774Z,11.30
2023-11-01T20:57:34.440Z,11.10
2023-11-01T20:59:37.625Z,10.93
2023-11-01T21:01:40.666Z,10.57
2023-11-01T21:03:42.521Z,11.32
2023-11-01T21:05:44.289Z,11.40
2023-11-01T21:07:46.843Z,11.25
2023-11-01T21:09:48.930Z,10.93
2023-11-01T21:11:50.699Z,10.23
2023-11-01T21:13:53.456Z,10.80
2023-11-01T21:15:57.698Z,10.77
2023-11-01T21:17:59.570Z,10.77
2023-11-01T21:20:01.429Z,10.73
2023-11-01T21:22:03.306Z,10.35
2023-11-01T21:24:05.707Z,11.02
2023-11-01T21:26:10.551Z,10.50
2023-11-01T21:28:12.561Z,10.60
2023-11-01T21:30:14.845Z,10.75
2023-11-01T21:32:17.148Z,10.52
2023-11-01T21:34:19.133Z,9.93
2023-11-01T21:36:21.122Z,10.05
2023-11-01T21:38:22.802Z,10.13
2023-11-01T21:40:24.811Z,9.70
2023-11-01T21:42:27.122Z,9.35
2023-11-01T21:44:40.041Z,10.60
2023-11-01T21:46:42.853Z,9.93
2023-11-01T21:48:45.280Z,9.75
2023-11-01T21:50:58.649Z,9.15
2023-11-01T21:53:00.539Z,9.70
2023-11-01T21:55:11.423Z,9.27
2023-11-01T21:57:13.662Z,9.35
2023-11-01T21:59:17.654Z,9.55
2023-11-01T22:01:22.422Z,9.95
2023-11-01T22:03:38.111Z,9.38
2023-11-01T22:05:40.022Z,10.27
2023-11-01T22:07:41.837Z,8.57
2023-11-01T22:09:47.932Z,9.00
2023-11-01T22:11:52.123Z,12.80
2023-11-01T22:13:54.008Z,12.80
2023-11-01T22:15:55.822Z,13.15
2023-11-01T22:17:57.773Z,12.05
2023-11-01T22:19:59.728Z,13.20
2023-11-01T22:22:06.436Z,12.63
2023-11-01T22:24:09.935Z,14.38
2023-11-01T22:26:18.641Z,12.88
2023-11-01T22:28:20.238Z,12.35
2023-11-01T22:30:21.995Z,12.73
2023-11-01T22:32:24.806Z,12.32
2023-11-01T22:34:30.227Z,12.00
2023-11-01T22:36:37.218Z,12.23
2023-11-01T22:38:39.227Z,12.55
2023-11-01T22:40:43.305Z,12.90
2023-11-01T22:42:46.253Z,11.57
2023-11-01T22:44:49.442Z,11.07
2023-11-01T22:46:51.388Z,11.13
2023-11-01T22:48:53.079Z,10.80
2023-11-01T22:50:54.847Z,10.77
2023-11-01T22:52:56.864Z,10.48
2023-11-01T22:54:58.647Z,10.45
2023-11-01T22:57:00.697Z,11.85
2023-11-01T22:59:02.611Z,10.93
2023-11-01T23:01:05.035Z,9.57
2023-11-01T23:03:07.330Z,10.27
2023-11-01T23:05:10.068Z,10.13
2023-11-01T23:07:11.897Z,10.05
2023-11-01T23:09:14.099Z,10.10
2023-11-01T23:11:16.232Z,10.80
2023-11-01T23:13:18.348Z,10.20
2023-11-01T23:15:20.083Z,11.07
2023-11-01T23:17:21.890Z,11.27
2023-11-01T23:19:25.727Z,13.65
2023-11-01T23:23:32.128Z,21.67
2023-11-01T23:25:35.786Z,20.80
2023-11-01T23:27:37.529Z,22.75
2023-11-01T23:29:40.110Z,18.23
2023-11-01T23:31:46.680Z,17.60
2023-11-01T23:33:48.813Z,19.10
2023-11-01T23:35:53.305Z,18.55
2023-11-01T23:37:56.339Z,17.00
2023-11-01T23:39:57.944Z,15.00
2023-11-01T23:41:59.959Z,14.10
2023-11-01T23:44:03.670Z,14.52
2023-11-01T23:46:17.535Z,13.45
2023-11-01T23:48:21.129Z,14.52
2023-11-01T23:50:47.447Z,15.48
2023-11-01T23:52:49.723Z,18.50
2023-11-01T23:54:53.530Z,18.77
2023-11-01T23:56:55.325Z,17.75
2023-11-01T23:58:57.032Z,17.17
